CheckWX is a tool to help pilots better visualize weather data.  It is not intended as a substitute for an official pre-flight weather briefing.

06:43:21 UTC

ENKR TAF
Kirkenes , Høybuktmoen Airport
Kirkenes, Norway
TAF ENKR 160500Z 1606/1615 32015KT 9999 BKN020

Jun-16@
06:00 UTC

Jun-16 @ 06:00 UTC

Jun-16@
15:00 UTC

Jun-16 @ 15:00 UTC

TAF ENKR 160500Z 1606/1615 32015KT 9999 BKN020
Wind
  • 320° at 15 KTS
Cloud Levels
  • Broken at 2,000' AGL